createdAt,value
2018-01-12T00:01:24.545Z,100.00
2018-01-12T00:02:51.544Z,100.00
2018-01-12T00:04:22.501Z,100.00
2018-01-12T00:05:45.512Z,100.00
2018-01-12T00:07:12.754Z,100.00
2018-01-12T00:08:39.692Z,100.00
2018-01-12T00:10:06.976Z,100.00
2018-01-12T00:11:30.038Z,100.00
2018-01-12T00:13:01.161Z,100.00
2018-01-12T00:14:28.245Z,100.00
2018-01-12T00:15:55.222Z,100.00
2018-01-12T00:17:22.404Z,100.00
2018-01-12T00:18:49.429Z,100.00
2018-01-12T00:20:16.492Z,100.00
2018-01-12T00:21:43.908Z,100.00
2018-01-12T00:23:11.290Z,100.00
2018-01-12T00:24:38.555Z,99.95
2018-01-12T00:26:05.758Z,100.00
2018-01-12T00:27:28.953Z,100.00
2018-01-12T00:29:00.214Z,100.00
2018-01-12T00:30:23.486Z,99.95
2018-01-12T00:31:54.399Z,99.80
2018-01-12T00:33:21.397Z,99.81
2018-01-12T00:34:48.541Z,99.88
2018-01-12T00:36:15.598Z,99.78
2018-01-12T00:37:43.110Z,99.76
2018-01-12T00:39:06.840Z,99.81
2018-01-12T00:40:37.254Z,99.89
2018-01-12T00:42:04.605Z,99.96
2018-01-12T00:43:31.702Z,99.94
2018-01-12T00:44:58.822Z,100.00
2018-01-12T00:46:26.035Z,100.00
2018-01-12T00:47:49.314Z,100.00
2018-01-12T00:49:20.280Z,100.00
2018-01-12T00:50:47.422Z,100.00
2018-01-12T00:52:10.572Z,100.00
2018-01-12T00:53:41.632Z,100.00
2018-01-12T00:55:08.631Z,100.00
2018-01-12T00:56:36.057Z,100.00
2018-01-12T00:58:03.030Z,100.00
2018-01-12T00:59:26.291Z,100.00
2018-01-12T01:00:57.568Z,100.00
2018-01-12T01:02:24.493Z,100.00
2018-01-12T01:03:51.591Z,100.00
2018-01-12T01:05:14.488Z,100.00
2018-01-12T01:06:45.789Z,100.00
2018-01-12T01:08:08.910Z,100.00
2018-01-12T01:09:36.318Z,100.00
2018-01-12T01:11:07.464Z,100.00
2018-01-12T01:12:34.196Z,100.00
2018-01-12T01:14:01.501Z,100.00
2018-01-12T01:15:28.531Z,100.00
2018-01-12T01:16:55.551Z,100.00
2018-01-12T01:18:22.561Z,100.00
2018-01-12T01:19:49.727Z,100.00
2018-01-12T01:21:16.582Z,100.00
2018-01-12T01:22:43.839Z,100.00
2018-01-12T01:24:11.046Z,100.00
2018-01-12T01:25:34.268Z,100.00
2018-01-12T01:27:01.450Z,100.00
2018-01-12T01:28:32.568Z,100.00
2018-01-12T01:29:59.664Z,100.00
2018-01-12T01:31:26.413Z,100.00
2018-01-12T01:32:53.474Z,100.00
2018-01-12T01:34:20.523Z,100.00
2018-01-12T01:35:43.674Z,100.00
2018-01-12T01:37:14.823Z,100.00
2018-01-12T01:38:37.626Z,100.00
2018-01-12T01:40:08.758Z,100.00
2018-01-12T01:41:35.967Z,100.00
2018-01-12T01:43:03.049Z,100.00
2018-01-12T01:44:29.961Z,100.00
2018-01-12T01:45:53.099Z,100.00
2018-01-12T01:47:24.130Z,100.00
2018-01-12T01:48:51.104Z,100.00
2018-01-12T01:50:18.261Z,100.00
2018-01-12T01:51:41.773Z,100.00
2018-01-12T01:53:12.828Z,100.00
2018-01-12T01:54:40.180Z,99.75
2018-01-12T01:56:07.532Z,99.67
2018-01-12T01:57:34.161Z,99.73
2018-01-12T01:58:57.319Z,99.85
2018-01-12T02:00:24.057Z,99.86
2018-01-12T02:01:54.958Z,99.67
2018-01-12T02:03:18.260Z,99.59
2018-01-12T02:04:45.438Z,99.40
2018-01-12T02:06:16.465Z,99.43
2018-01-12T02:07:40.114Z,99.65
2018-01-12T02:09:10.996Z,99.57
2018-01-12T02:10:38.189Z,99.65
2018-01-12T02:12:01.211Z,99.52
2018-01-12T02:13:28.377Z,99.76
2018-01-12T02:14:59.872Z,99.64
2018-01-12T02:16:23.032Z,99.54
2018-01-12T02:17:50.340Z,99.64
2018-01-12T02:19:21.064Z,99.30
2018-01-12T02:20:48.240Z,99.28
2018-01-12T02:22:18.365Z,99.53
2018-01-12T02:23:42.508Z,99.50
2018-01-12T02:25:09.785Z,99.53
2018-01-12T02:26:36.965Z,99.25
2018-01-12T02:28:04.018Z,99.44
2018-01-12T02:29:30.997Z,99.35
2018-01-12T02:30:54.260Z,99.59
2018-01-12T02:32:24.957Z,99.61
2018-01-12T02:33:51.970Z,99.80
2018-01-12T02:35:15.232Z,99.71
2018-01-12T02:36:46.025Z,100.00
2018-01-12T02:38:09.579Z,99.96
2018-01-12T02:39:40.553Z,99.89
2018-01-12T02:41:03.767Z,100.00
2018-01-12T02:42:34.831Z,99.93
2018-01-12T02:44:02.073Z,100.00
2018-01-12T02:45:29.208Z,100.00
2018-01-12T02:46:56.200Z,100.00
2018-01-12T02:48:23.492Z,99.97
2018-01-12T02:49:50.514Z,99.99
2018-01-12T02:51:17.646Z,100.00
2018-01-12T02:52:44.773Z,99.83
2018-01-12T02:54:12.054Z,99.79
2018-01-12T02:55:39.317Z,99.79
2018-01-12T02:57:02.406Z,99.47
2018-01-12T02:58:33.645Z,99.67
2018-01-12T03:00:00.559Z,99.68
2018-01-12T03:01:23.643Z,99.59
2018-01-12T03:02:50.911Z,99.67
2018-01-12T03:04:21.707Z,99.66
2018-01-12T03:05:52.970Z,99.61
2018-01-12T03:07:15.841Z,99.81
2018-01-12T03:08:42.873Z,99.95
2018-01-12T03:10:06.051Z,99.95
2018-01-12T03:11:37.222Z,100.00
2018-01-12T03:13:00.395Z,99.93
2018-01-12T03:14:31.504Z,99.99
2018-01-12T03:15:58.785Z,99.93
2018-01-12T03:17:21.992Z,100.00
2018-01-12T03:18:52.881Z,100.00
2018-01-12T03:20:20.272Z,100.00
2018-01-12T03:21:47.377Z,100.00
2018-01-12T03:23:14.564Z,99.98
2018-01-12T03:24:41.682Z,100.00
2018-01-12T03:26:04.973Z,100.00
2018-01-12T03:27:31.896Z,100.00
2018-01-12T03:29:03.156Z,100.00
2018-01-12T03:30:30.513Z,99.96
2018-01-12T03:31:57.628Z,99.88
2018-01-12T03:33:21.029Z,100.00
2018-01-12T03:34:48.024Z,100.00
2018-01-12T03:36:14.935Z,100.00
2018-01-12T03:37:45.912Z,100.00
2018-01-12T03:39:13.221Z,100.00
2018-01-12T03:40:40.279Z,100.00
2018-01-12T03:42:07.515Z,100.00
2018-01-12T03:43:34.586Z,100.00
2018-01-12T03:45:01.572Z,100.00
2018-01-12T03:46:28.498Z,100.00
2018-01-12T03:47:51.317Z,100.00
2018-01-12T03:49:22.582Z,100.00
2018-01-12T03:50:49.715Z,100.00
2018-01-12T03:52:16.689Z,100.00
2018-01-12T03:53:39.917Z,100.00
2018-01-12T03:55:10.824Z,100.00
2018-01-12T03:56:33.797Z,100.00
2018-01-12T03:58:04.913Z,100.00
2018-01-12T03:59:32.083Z,100.00
2018-01-12T04:00:59.036Z,100.00
2018-01-12T04:02:26.332Z,100.00
2018-01-12T04:03:53.286Z,100.00
2018-01-12T04:05:20.413Z,100.00
2018-01-12T04:06:47.527Z,100.00
2018-01-12T04:08:14.687Z,100.00
2018-01-12T04:09:41.827Z,100.00
2018-01-12T04:11:09.008Z,100.00
2018-01-12T04:12:35.903Z,100.00
2018-01-12T04:13:59.039Z,100.00
2018-01-12T04:15:29.990Z,100.00
2018-01-12T04:16:53.136Z,100.00
2018-01-12T04:18:24.251Z,100.00
2018-01-12T04:19:47.575Z,100.00
2018-01-12T04:21:14.637Z,100.00
2018-01-12T04:22:45.727Z,100.00
2018-01-12T04:24:08.942Z,100.00
2018-01-12T04:25:36.425Z,100.00
2018-01-12T04:27:07.219Z,100.00
2018-01-12T04:28:34.382Z,100.00
2018-01-12T04:30:01.492Z,100.00
2018-01-12T04:31:28.778Z,100.00
2018-01-12T04:32:56.091Z,100.00
2018-01-12T04:34:18.995Z,100.00
2018-01-12T04:35:46.018Z,100.00
2018-01-12T04:37:17.003Z,100.00
2018-01-12T04:38:43.697Z,100.00
2018-01-12T04:40:10.938Z,100.00
2018-01-12T04:41:38.543Z,100.00
2018-01-12T04:43:05.552Z,100.00
2018-01-12T04:44:28.699Z,100.00
2018-01-12T04:45:55.761Z,100.00
2018-01-12T04:47:22.813Z,100.00
2018-01-12T04:48:50.034Z,100.00
2018-01-12T04:50:21.175Z,100.00
2018-01-12T04:51:48.287Z,100.00
2018-01-12T04:53:15.514Z,100.00
2018-01-12T04:54:38.793Z,100.00
2018-01-12T04:56:09.714Z,100.00
2018-01-12T04:57:37.876Z,100.00
2018-01-12T04:59:03.882Z,100.00
2018-01-12T05:00:30.915Z,100.00
2018-01-12T05:01:58.338Z,100.00
2018-01-12T05:03:25.416Z,100.00
2018-01-12T05:04:52.720Z,100.00
2018-01-12T05:06:19.857Z,100.00
2018-01-12T05:07:47.135Z,100.00
2018-01-12T05:09:13.921Z,100.00
2018-01-12T05:10:37.317Z,100.00
2018-01-12T05:12:08.740Z,100.00
2018-01-12T05:13:31.608Z,100.00
2018-01-12T05:15:02.620Z,100.00
2018-01-12T05:16:29.609Z,100.00
2018-01-12T05:17:56.891Z,100.00
2018-01-12T05:19:24.060Z,100.00
2018-01-12T05:20:47.135Z,100.00
2018-01-12T05:22:18.185Z,100.00
2018-01-12T05:23:41.412Z,100.00
2018-01-12T05:25:12.768Z,100.00
2018-01-12T05:26:36.247Z,100.00
2018-01-12T05:28:02.894Z,100.00
2018-01-12T05:29:34.124Z,100.00
2018-01-12T05:31:00.916Z,100.00
2018-01-12T05:32:28.067Z,100.00
2018-01-12T05:33:51.110Z,100.00
2018-01-12T05:35:22.364Z,100.00
2018-01-12T05:36:49.702Z,100.00
2018-01-12T05:38:16.663Z,100.00
2018-01-12T05:39:44.876Z,100.00
2018-01-12T05:41:11.300Z,100.00
2018-01-12T05:42:38.546Z,100.00
2018-01-12T05:44:01.030Z,100.00
2018-01-12T05:45:31.931Z,100.00
2018-01-12T05:46:59.186Z,100.00
2018-01-12T05:48:22.312Z,100.00
2018-01-12T05:49:49.519Z,100.00
2018-01-12T05:51:20.537Z,100.00
2018-01-12T05:52:47.685Z,100.00
2018-01-12T05:54:14.599Z,100.00
2018-01-12T05:55:41.694Z,100.00
2018-01-12T05:57:08.824Z,100.00
2018-01-12T05:58:35.991Z,100.00
2018-01-12T05:59:59.087Z,100.00
2018-01-12T06:01:30.052Z,100.00
2018-01-12T06:02:57.262Z,100.00
2018-01-12T06:04:20.330Z,100.00
2018-01-12T06:05:51.420Z,100.00
2018-01-12T06:07:18.611Z,100.00
2018-01-12T06:08:42.126Z,100.00
2018-01-12T06:10:13.022Z,100.00
2018-01-12T06:11:40.236Z,100.00
2018-01-12T06:13:03.231Z,100.00
2018-01-12T06:14:34.505Z,100.00
2018-01-12T06:15:57.471Z,100.00
2018-01-12T06:17:31.303Z,100.00
2018-01-12T06:18:55.479Z,100.00
2018-01-12T06:20:22.524Z,100.00
2018-01-12T06:21:49.555Z,100.00
2018-01-12T06:23:18.462Z,100.00
2018-01-12T06:24:43.448Z,100.00
2018-01-12T06:26:06.474Z,100.00
2018-01-12T06:27:37.579Z,100.00
2018-01-12T06:29:04.469Z,100.00
2018-01-12T06:30:31.444Z,100.00
2018-01-12T06:33:25.699Z,100.00
2018-01-12T06:34:52.886Z,100.00
2018-01-12T06:36:16.019Z,100.00
2018-01-12T06:37:47.068Z,100.00
2018-01-12T06:39:14.321Z,100.00
2018-01-12T06:40:41.195Z,100.00
2018-01-12T06:42:04.427Z,100.00
2018-01-12T06:43:31.318Z,100.00
2018-01-12T06:45:02.559Z,100.00
2018-01-12T06:46:25.408Z,100.00
2018-01-12T06:47:52.218Z,100.00
2018-01-12T06:49:23.506Z,100.00
2018-01-12T06:50:46.644Z,100.00
2018-01-12T06:52:17.563Z,100.00
2018-01-12T06:53:40.763Z,100.00
2018-01-12T06:55:07.839Z,100.00
2018-01-12T06:56:39.012Z,100.00
2018-01-12T06:58:05.973Z,100.00
2018-01-12T06:59:29.257Z,100.00
2018-01-12T07:00:56.629Z,100.00
2018-01-12T07:02:27.134Z,100.00
2018-01-12T07:03:54.372Z,100.00
2018-01-12T07:05:21.379Z,100.00
2018-01-12T07:06:48.304Z,100.00
2018-01-12T07:08:15.405Z,100.00
2018-01-12T07:09:42.429Z,100.00
2018-01-12T07:11:09.784Z,100.00
2018-01-12T07:12:36.080Z,100.00
2018-01-12T07:14:03.212Z,100.00
2018-01-12T07:15:30.337Z,100.00
2018-01-12T07:16:57.260Z,100.00
2018-01-12T07:18:24.363Z,100.00
2018-01-12T07:19:47.318Z,100.00
2018-01-12T07:21:14.522Z,100.00
2018-01-12T07:22:42.021Z,100.00
2018-01-12T07:24:12.735Z,100.00
2018-01-12T07:25:39.983Z,100.00
2018-01-12T07:27:03.218Z,100.00
2018-01-12T07:28:34.413Z,100.00
2018-01-12T07:30:01.526Z,100.00
2018-01-12T07:31:24.755Z,100.00
2018-01-12T07:32:56.039Z,100.00
2018-01-12T07:34:23.130Z,100.00
2018-01-12T07:35:50.356Z,100.00
2018-01-12T07:37:17.310Z,100.00
2018-01-12T07:38:40.627Z,100.00
2018-01-12T07:40:08.334Z,100.00
2018-01-12T07:41:39.008Z,100.00
2018-01-12T07:43:02.108Z,100.00
2018-01-12T07:44:29.276Z,100.00
2018-01-12T07:45:56.851Z,100.00
2018-01-12T07:47:27.297Z,100.00
2018-01-12T07:48:50.395Z,100.00
2018-01-12T07:50:21.419Z,100.00
2018-01-12T07:51:48.569Z,100.00
2018-01-12T07:53:15.591Z,100.00
2018-01-12T07:54:42.761Z,100.00
2018-01-12T07:56:05.948Z,100.00
2018-01-12T07:57:33.140Z,100.00
2018-01-12T07:59:04.407Z,100.00
2018-01-12T08:00:31.784Z,100.00
2018-01-12T08:01:58.644Z,100.00
2018-01-12T08:03:21.845Z,100.00
2018-01-12T08:04:52.698Z,100.00
2018-01-12T08:06:19.774Z,100.00
2018-01-12T08:07:46.698Z,100.00
2018-01-12T08:09:13.673Z,100.00
2018-01-12T08:10:37.267Z,100.00
2018-01-12T08:12:08.285Z,100.00
2018-01-12T08:13:35.380Z,100.00
2018-01-12T08:14:58.757Z,100.00
2018-01-12T08:16:29.779Z,100.00
2018-01-12T08:17:57.155Z,100.00
2018-01-12T08:19:24.086Z,100.00
2018-01-12T08:20:47.306Z,100.00
2018-01-12T08:22:14.391Z,100.00
2018-01-12T08:23:45.692Z,100.00
2018-01-12T08:25:12.962Z,99.94
2018-01-12T08:26:40.065Z,99.99
2018-01-12T08:28:03.076Z,100.00
2018-01-12T08:29:29.819Z,100.00
2018-01-12T08:31:00.905Z,100.00
2018-01-12T08:32:28.171Z,100.00
2018-01-12T08:33:55.098Z,100.00
2018-01-12T08:35:22.119Z,100.00
2018-01-12T08:36:48.917Z,100.00
2018-01-12T08:38:16.271Z,100.00
2018-01-12T08:39:43.246Z,100.00
2018-01-12T08:41:10.722Z,100.00
2018-01-12T08:42:37.657Z,100.00
2018-01-12T08:44:04.913Z,100.00
2018-01-12T08:45:32.034Z,100.00
2018-01-12T08:46:55.382Z,100.00
2018-01-12T08:48:26.607Z,100.00
2018-01-12T08:49:53.702Z,100.00
2018-01-12T08:51:20.585Z,100.00
2018-01-12T08:52:43.751Z,100.00
2018-01-12T08:54:14.784Z,100.00
2018-01-12T08:55:41.948Z,100.00
2018-01-12T08:57:09.158Z,100.00
2018-01-12T08:58:37.062Z,100.00
2018-01-12T09:00:02.992Z,100.00
2018-01-12T09:01:30.363Z,100.00
2018-01-12T09:02:57.493Z,100.00
2018-01-12T09:04:20.458Z,100.00
2018-01-12T09:05:47.358Z,100.00
2018-01-12T09:07:18.304Z,100.00
2018-01-12T09:08:41.592Z,100.00
2018-01-12T09:10:12.232Z,100.00
2018-01-12T09:11:35.384Z,100.00
2018-01-12T09:13:06.622Z,100.00
2018-01-12T09:14:29.651Z,100.00
2018-01-12T09:16:00.598Z,100.00
2018-01-12T09:17:28.089Z,100.00
2018-01-12T09:18:51.045Z,100.00
2018-01-12T09:20:21.792Z,100.00
2018-01-12T09:21:48.968Z,100.00
2018-01-12T09:23:16.447Z,100.00
2018-01-12T09:24:43.729Z,100.00
2018-01-12T09:26:10.775Z,100.00
2018-01-12T09:27:34.123Z,99.93
2018-01-12T09:29:04.887Z,100.00
2018-01-12T09:30:28.135Z,99.89
2018-01-12T09:31:59.065Z,99.87
2018-01-12T09:33:21.897Z,100.00
2018-01-12T09:34:49.037Z,100.00
2018-01-12T09:36:16.061Z,100.00
2018-01-12T09:37:46.809Z,100.00
2018-01-12T09:39:14.187Z,99.96
2018-01-12T09:40:37.383Z,99.90
2018-01-12T09:42:08.109Z,100.00
2018-01-12T09:43:35.152Z,100.00
2018-01-12T09:44:58.826Z,99.83
2018-01-12T09:46:25.590Z,99.71
2018-01-12T09:47:52.001Z,99.57
2018-01-12T09:49:22.972Z,99.76
2018-01-12T09:50:46.061Z,99.67
2018-01-12T09:52:16.976Z,99.84
2018-01-12T09:53:40.840Z,99.68
2018-01-12T09:55:11.692Z,99.53
2018-01-12T09:56:38.504Z,99.52
2018-01-12T09:58:01.682Z,99.39
2018-01-12T09:59:33.122Z,99.45
2018-01-12T10:00:56.179Z,99.35
2018-01-12T10:02:27.306Z,99.36
2018-01-12T10:03:50.570Z,99.43
2018-01-12T10:05:21.637Z,99.74
2018-01-12T10:06:48.591Z,99.87
2018-01-12T10:08:15.773Z,100.00
2018-01-12T10:09:39.261Z,99.80
2018-01-12T10:11:06.477Z,99.43
2018-01-12T10:12:33.084Z,99.24
2018-01-12T10:14:04.208Z,99.43
2018-01-12T10:15:27.491Z,98.99
2018-01-12T10:16:54.456Z,98.87
2018-01-12T10:18:21.668Z,99.16
2018-01-12T10:19:52.585Z,99.12
2018-01-12T10:21:19.599Z,99.34
2018-01-12T10:22:43.028Z,99.31
2018-01-12T10:24:13.859Z,99.15
2018-01-12T10:25:41.600Z,98.98
2018-01-12T10:27:08.513Z,98.96
2018-01-12T10:28:31.498Z,99.09
2018-01-12T10:30:02.596Z,98.93
2018-01-12T10:31:30.012Z,99.08
2018-01-12T10:32:56.752Z,99.02
2018-01-12T10:34:23.702Z,99.13
2018-01-12T10:35:46.528Z,98.79
2018-01-12T10:37:17.430Z,98.23
2018-01-12T10:38:41.288Z,98.04
2018-01-12T10:40:11.845Z,98.25
2018-01-12T10:41:39.981Z,98.46
2018-01-12T10:43:06.192Z,98.62
2018-01-12T10:44:33.129Z,98.37
2018-01-12T10:46:00.482Z,98.40
2018-01-12T10:47:27.439Z,98.62
2018-01-12T10:48:50.588Z,98.64
2018-01-12T10:50:21.648Z,98.29
2018-01-12T10:51:44.891Z,98.49
2018-01-12T10:53:15.793Z,98.65
2018-01-12T10:54:43.053Z,98.73
2018-01-12T10:56:10.614Z,98.73
2018-01-12T10:57:38.394Z,98.70
2018-01-12T10:59:00.504Z,98.67
2018-01-12T11:00:27.027Z,98.71
2018-01-12T11:01:58.043Z,98.70
2018-01-12T11:03:24.946Z,99.24
2018-01-12T11:04:52.134Z,99.58
2018-01-12T11:06:19.225Z,99.49
2018-01-12T11:07:46.264Z,99.30
2018-01-12T11:09:10.290Z,99.46
2018-01-12T11:10:40.699Z,99.57
2018-01-12T11:12:03.742Z,99.65
2018-01-12T11:13:34.852Z,99.11
2018-01-12T11:15:01.831Z,99.51
2018-01-12T11:16:28.743Z,99.39
2018-01-12T11:17:55.689Z,99.23
2018-01-12T11:19:18.978Z,99.49
2018-01-12T11:20:49.995Z,99.22
2018-01-12T11:22:16.877Z,99.16
2018-01-12T11:23:44.208Z,99.22
2018-01-12T11:25:08.055Z,99.00
2018-01-12T11:28:05.285Z,99.02
2018-01-12T11:29:32.504Z,98.99
2018-01-12T11:30:55.721Z,98.70
2018-01-12T11:32:26.671Z,98.39
2018-01-12T11:33:49.864Z,98.77
2018-01-12T11:35:21.010Z,98.89
2018-01-12T11:36:43.950Z,99.02
2018-01-12T11:38:14.894Z,99.16
2018-01-12T11:39:38.368Z,98.88
2018-01-12T11:41:05.293Z,98.78
2018-01-12T11:42:32.205Z,98.66
2018-01-12T11:44:03.315Z,98.41
2018-01-12T11:45:26.544Z,97.88
2018-01-12T11:46:57.784Z,97.95
2018-01-12T11:48:21.054Z,97.59
2018-01-12T11:49:52.152Z,97.21
2018-01-12T11:51:15.232Z,97.12
2018-01-12T11:52:42.429Z,97.17
2018-01-12T11:54:13.457Z,97.05
2018-01-12T11:55:40.596Z,97.31
2018-01-12T11:57:03.899Z,97.33
2018-01-12T11:58:31.168Z,97.25
2018-01-12T12:00:02.202Z,97.40
2018-01-12T12:01:25.587Z,97.48
2018-01-12T12:02:56.589Z,97.12
2018-01-12T12:04:23.701Z,96.58
2018-01-12T12:05:50.640Z,96.92
2018-01-12T12:07:17.610Z,96.65
2018-01-12T12:08:44.924Z,97.05
2018-01-12T12:10:12.098Z,97.19
2018-01-12T12:11:32.331Z,96.80
2018-01-12T12:13:06.324Z,96.84
2018-01-12T12:14:33.511Z,96.39
2018-01-12T12:16:00.586Z,95.88
2018-01-12T12:17:27.637Z,95.94
2018-01-12T12:18:54.887Z,96.21
2018-01-12T12:20:21.747Z,95.74
2018-01-12T12:21:45.027Z,96.07
2018-01-12T12:23:12.130Z,95.95
2018-01-12T12:24:43.199Z,95.88
2018-01-12T12:26:10.347Z,95.64
2018-01-12T12:27:37.776Z,95.87
2018-01-12T12:29:04.725Z,95.89
2018-01-12T12:30:31.897Z,96.06
2018-01-12T12:31:55.071Z,95.85
2018-01-12T12:33:22.114Z,95.45
2018-01-12T12:34:53.405Z,95.51
2018-01-12T12:36:20.603Z,95.48
2018-01-12T12:37:43.890Z,95.57
2018-01-12T12:39:11.121Z,96.03
2018-01-12T12:40:38.391Z,96.29
2018-01-12T12:42:09.341Z,96.03
2018-01-12T12:43:36.438Z,95.88
2018-01-12T12:45:03.333Z,96.02
2018-01-12T12:46:26.600Z,95.98
2018-01-12T12:47:57.596Z,95.79
2018-01-12T12:49:24.672Z,96.21
2018-01-12T12:50:51.856Z,95.85
2018-01-12T12:52:19.173Z,95.98
2018-01-12T12:53:42.500Z,96.04
2018-01-12T12:55:10.223Z,95.73
2018-01-12T12:56:37.108Z,95.73
2018-01-12T12:58:03.934Z,96.15
2018-01-12T12:59:34.887Z,96.27
2018-01-12T13:01:02.055Z,95.97
2018-01-12T13:02:25.241Z,95.89
2018-01-12T13:23:55.113Z,95.29
2018-01-12T13:25:18.104Z,95.38
2018-01-12T13:26:45.392Z,95.43
2018-01-12T13:28:16.670Z,95.31
2018-01-12T13:29:43.746Z,95.51
2018-01-12T13:31:10.506Z,95.49
2018-01-12T13:32:37.543Z,95.53
2018-01-12T13:34:04.523Z,95.89
2018-01-12T13:35:27.633Z,96.02
2018-01-12T13:36:58.780Z,96.14
2018-01-12T13:38:22.076Z,96.14
2018-01-12T13:39:53.232Z,96.18
2018-01-12T13:41:16.352Z,96.21
2018-01-12T13:42:43.708Z,96.28
2018-01-12T13:44:14.556Z,96.09
2018-01-12T13:45:37.749Z,96.05
2018-01-12T13:47:08.850Z,95.82
2018-01-12T13:48:32.010Z,95.67
2018-01-12T13:49:59.196Z,95.92
2018-01-12T13:51:26.435Z,96.05
2018-01-12T13:52:53.422Z,96.03
2018-01-12T13:54:20.442Z,96.03
2018-01-12T13:55:51.699Z,95.93
2018-01-12T13:57:14.858Z,96.18
2018-01-12T13:58:46.082Z,96.09
2018-01-12T14:00:09.114Z,96.08
2018-01-12T14:01:40.344Z,96.14
2018-01-12T14:03:03.588Z,96.16
2018-01-12T14:04:34.741Z,96.10
2018-01-12T14:06:01.776Z,96.16
2018-01-12T14:07:24.910Z,96.23
2018-01-12T14:08:55.916Z,96.00
2018-01-12T14:10:19.069Z,96.24
2018-01-12T14:11:49.926Z,96.18
2018-01-12T14:13:17.056Z,96.41
2018-01-12T14:14:44.294Z,96.33
2018-01-12T14:16:07.577Z,96.16
2018-01-12T14:17:34.748Z,96.22
2018-01-12T14:19:05.738Z,96.34
2018-01-12T14:20:32.971Z,96.09
2018-01-12T14:21:56.162Z,96.13
2018-01-12T14:23:27.298Z,96.23
2018-01-12T14:24:50.128Z,96.28
2018-01-12T14:26:17.289Z,96.20
2018-01-12T14:27:48.292Z,96.15
2018-01-12T14:29:11.643Z,96.22
2018-01-12T14:30:42.993Z,96.45
2018-01-12T14:32:06.092Z,96.29
2018-01-12T14:33:33.298Z,96.27
2018-01-12T14:35:00.589Z,96.30
2018-01-12T14:36:27.796Z,96.44
2018-01-12T14:37:58.921Z,96.38
2018-01-12T14:39:25.987Z,96.48
2018-01-12T14:40:48.942Z,96.52
2018-01-12T14:42:20.233Z,96.48
2018-01-12T14:43:43.551Z,96.25
2018-01-12T14:45:14.634Z,95.93
2018-01-12T14:46:37.820Z,95.90
2018-01-12T14:48:09.125Z,95.99
2018-01-12T14:49:32.346Z,96.21
2018-01-12T14:51:03.515Z,95.88
2018-01-12T14:52:30.789Z,95.32
2018-01-12T14:53:53.944Z,95.29
2018-01-12T14:55:25.080Z,95.07
2018-01-12T14:56:52.211Z,95.50
2018-01-12T14:58:15.364Z,95.46
2018-01-12T14:59:46.398Z,95.13
2018-01-12T15:01:09.660Z,95.21
2018-01-12T15:02:36.507Z,95.32
2018-01-12T15:04:07.419Z,95.46
2018-01-12T15:05:30.605Z,95.52
2018-01-12T15:06:57.411Z,95.71
2018-01-12T15:08:24.830Z,95.92
2018-01-12T15:09:55.925Z,95.94
2018-01-12T15:11:19.175Z,96.03
2018-01-12T15:12:50.347Z,95.93
2018-01-12T15:14:13.371Z,96.09
2018-01-12T15:15:44.399Z,96.11
2018-01-12T15:17:07.464Z,96.16
2018-01-12T15:18:34.799Z,96.44
2018-01-12T15:20:01.976Z,96.35
2018-01-12T15:21:29.318Z,96.57
2018-01-12T15:22:56.692Z,96.67
2018-01-12T15:24:27.660Z,96.60
2018-01-12T15:25:50.584Z,96.64
2018-01-12T15:27:21.641Z,96.54
2018-01-12T15:28:48.826Z,96.54
2018-01-12T15:30:16.049Z,96.62
2018-01-12T15:31:39.160Z,96.13
2018-01-12T15:33:10.320Z,95.96
2018-01-12T15:34:37.329Z,95.19
2018-01-12T15:36:00.564Z,94.99
2018-01-12T15:37:27.727Z,95.06
2018-01-12T15:38:54.818Z,95.11
2018-01-12T15:40:25.801Z,94.44
2018-01-12T15:41:48.973Z,94.58
2018-01-12T15:43:16.253Z,94.67
2018-01-12T15:44:43.350Z,94.60
2018-01-12T15:46:10.586Z,94.55
2018-01-12T15:47:37.741Z,94.24
2018-01-12T15:49:04.903Z,94.24
2018-01-12T15:50:32.096Z,94.48
2018-01-12T15:51:59.136Z,94.33
2018-01-12T15:53:26.132Z,94.41
2018-01-12T15:54:57.163Z,94.44
2018-01-12T15:56:20.221Z,94.51
2018-01-12T15:57:47.445Z,94.64
2018-01-12T15:59:14.725Z,94.96
2018-01-12T16:00:45.880Z,95.08
2018-01-12T16:02:13.209Z,95.07
2018-01-12T16:03:36.271Z,95.24
2018-01-12T16:05:03.207Z,95.41
2018-01-12T16:06:34.404Z,95.45
2018-01-12T16:07:57.354Z,95.33
2018-01-12T16:09:28.483Z,95.60
2018-01-12T16:10:55.514Z,95.58
2018-01-12T16:12:18.781Z,95.65
2018-01-12T16:13:46.003Z,95.83
2018-01-12T16:15:13.219Z,95.89
2018-01-12T16:16:44.324Z,95.96
2018-01-12T16:18:11.592Z,96.06
2018-01-12T16:19:34.913Z,95.87
2018-01-12T16:21:06.033Z,96.21
2018-01-12T16:22:33.172Z,96.00
2018-01-12T16:24:00.332Z,96.16
2018-01-12T16:25:27.275Z,95.96
2018-01-12T16:26:54.287Z,96.03
2018-01-12T16:28:17.434Z,95.93
2018-01-12T16:29:44.672Z,95.88
2018-01-12T16:31:15.789Z,96.06
2018-01-12T16:32:42.969Z,96.04
2018-01-12T16:34:09.971Z,96.04
2018-01-12T16:35:36.982Z,96.26
2018-01-12T16:37:00.197Z,96.03
2018-01-12T16:38:27.429Z,95.96
2018-01-12T16:39:58.397Z,96.00
2018-01-12T16:41:21.505Z,95.99
2018-01-12T16:42:52.685Z,95.91
2018-01-12T16:44:19.858Z,95.97
2018-01-12T16:45:47.079Z,96.00
2018-01-12T16:47:10.176Z,96.01
2018-01-12T16:48:41.462Z,96.01
2018-01-12T16:50:08.493Z,95.81
2018-01-12T16:51:35.543Z,95.93
2018-01-12T16:52:58.758Z,95.92
2018-01-12T16:54:29.789Z,96.05
2018-01-12T16:55:52.959Z,95.94
2018-01-12T16:57:23.581Z,95.37
2018-01-12T16:58:50.767Z,95.56
2018-01-12T17:00:17.930Z,95.25
2018-01-12T17:01:41.061Z,95.25
2018-01-12T17:03:12.070Z,95.36
2018-01-12T17:04:35.404Z,95.54
2018-01-12T17:06:06.289Z,95.31
2018-01-12T17:07:29.441Z,95.33
2018-01-12T17:09:00.474Z,95.66
2018-01-12T17:10:23.570Z,95.60
2018-01-12T17:11:54.312Z,95.30
2018-01-12T17:13:17.466Z,95.25
2018-01-12T17:14:44.272Z,95.24
2018-01-12T17:16:15.363Z,95.27
2018-01-12T17:17:42.589Z,95.50
2018-01-12T17:19:09.780Z,95.22
2018-01-12T17:20:37.060Z,95.22
2018-01-12T17:22:04.051Z,94.82
2018-01-12T17:23:27.162Z,95.03
2018-01-12T17:24:58.085Z,94.48
2018-01-12T17:26:25.052Z,94.52
2018-01-12T17:27:48.237Z,94.97
2018-01-12T17:29:15.501Z,94.43
2018-01-12T17:30:46.611Z,94.31
2018-01-12T17:32:09.715Z,94.77
2018-01-12T17:33:40.564Z,94.82
2018-01-12T17:35:03.804Z,94.44
2018-01-12T17:36:34.900Z,94.55
2018-01-12T17:38:02.031Z,94.75
2018-01-12T17:39:29.103Z,94.54
2018-01-12T17:40:56.172Z,94.51
2018-01-12T17:42:23.195Z,94.70
2018-01-12T17:43:50.335Z,94.61
2018-01-12T17:45:13.562Z,94.56
2018-01-12T17:46:40.585Z,94.94
2018-01-12T17:48:11.684Z,94.66
2018-01-12T17:49:34.858Z,94.93
2018-01-12T17:51:06.021Z,94.68
2018-01-12T17:52:33.237Z,94.66
2018-01-12T17:53:56.408Z,94.77
2018-01-12T17:55:27.552Z,94.91
2018-01-12T17:56:50.447Z,95.10
2018-01-12T17:58:17.580Z,95.00
2018-01-12T17:59:48.827Z,94.86
2018-01-12T18:01:11.678Z,94.63
2018-01-12T18:02:38.765Z,94.83
2018-01-12T18:04:05.916Z,94.73
2018-01-12T18:05:32.766Z,95.06
2018-01-12T18:07:03.843Z,95.11
2018-01-12T18:08:26.984Z,94.93
2018-01-12T18:09:54.194Z,95.18
2018-01-12T18:11:21.255Z,95.48
2018-01-12T18:12:48.335Z,95.38
2018-01-12T18:14:15.331Z,95.47
2018-01-12T18:15:42.246Z,95.30
2018-01-12T18:17:09.532Z,95.74
2018-01-12T18:18:36.705Z,95.70
2018-01-12T18:20:07.848Z,95.76
2018-01-12T18:21:31.197Z,95.81
2018-01-12T18:23:02.258Z,95.67
2018-01-12T18:24:25.556Z,95.85
2018-01-12T18:25:56.832Z,95.51
2018-01-12T18:27:20.018Z,95.29
2018-01-12T18:28:47.014Z,95.16
2018-01-12T18:30:17.937Z,95.13
2018-01-12T18:31:45.105Z,95.01
2018-01-12T18:33:12.220Z,95.06
2018-01-12T18:34:39.433Z,94.84
2018-01-12T18:36:02.526Z,95.01
2018-01-12T18:37:29.637Z,94.74
2018-01-12T18:38:56.896Z,94.64
2018-01-12T18:40:23.724Z,94.85
2018-01-12T18:41:50.593Z,95.16
2018-01-12T18:43:17.765Z,95.22
2018-01-12T18:44:44.793Z,95.29
2018-01-12T18:46:11.852Z,95.36
2018-01-12T18:47:42.927Z,95.42
2018-01-12T18:49:06.179Z,95.52
2018-01-12T18:50:37.254Z,95.62